• Join FlightAware (Why Join?)
  • Login
  • US Flag 
11:43AM EDT


 

Airport Tracker/Info


-or-


 

Live Flight TrackerFlight Track Log ✈ DAL1903 ✈ 18-Apr-2013 ✈ KLGA - KSRQ

Flight Track Log - Related Links

Times and Time Zones

All times are in EDT time to prevent confusion due to time zone crossing. See the DAL1903 flight status page for this flight to view local times or setup timezone preferences in your user account.

Time Position Orientation Groundspeed Altitude Reporting Facility
EDT Latitude Longitude Course Direction KTS MPH feet Rate Location/Type
11:29AM 40.7500 -73.8333 252° West 169 194 2,000  Level New York TRACON
11:30AM 40.7000 -73.8500 194° South 217 250 5,100 3,000 Climbing New York TRACON
11:31AM 40.6249 -74.3002 244° Southwest  Level FlightAware Approximate
11:31AM 40.6833 -73.9333 255° West 240 276 8,100  Level New York TRACON
11:32AM 40.5737 -74.4459 246° West  Level FlightAware Approximate
11:32AM 40.7167 -74.0000 303° West 266 306 10,500  Level New York TRACON
11:33AM 40.5333 -74.5952 270° West  Level FlightAware Approximate
11:33AM 40.7667 -74.1000 303° West 324 373 12,000  Level New York TRACON
11:34AM 40.4822 -74.7379 252° West  Level FlightAware Approximate
11:35AM 40.7911 -74.4028 276° West 381 438 16,600  Level New York Center
11:36AM 40.7186 -74.5247 232° Southwest 381 438 17,000 420 Climbing New York Center
11:37AM 40.6506 -74.6278 229° Southwest 400 460 17,500 1,200 Climbing New York Center
11:38AM 40.5675 -74.7489 228° Southwest 421 484 19,500 1,800 Climbing New York Center
11:39AM 40.4925 -74.8672 230° Southwest 426 490 21,200 1,680 Climbing New York Center
11:40AM 40.4114 -74.9850 228° Southwest 431 496 22,900 1,740 Climbing New York Center
11:41AM 40.3278 -75.1025 227° Southwest 436 502 24,700 1,920 Climbing New York Center
11:42AM 40.2442 -75.2222 228° Southwest 442 509 26,800 1,860 Climbing New York Center
11:43AM 40.1625 -75.3394 228° Southwest 447 514 28,600 1,620 Climbing New York Center
11:44AM 40.0808 -75.4561 228° Southwest 447 514 30,100 1,440 Climbing New York Center
11:45AM 39.9972 -75.5697 226° Southwest 447 514 31,500 900 Climbing New York Center
11:46AM 39.9175 -75.6833 228° Southwest 442 509 32,000 240 Climbing New York Center
11:47AM 39.8436 -75.7997 230° Southwest 437 503 32,100 600 Climbing New York Center
11:48AM 39.7675 -75.9214 231° Southwest 437 503 33,200 540 Climbing New York Center
11:50AM 39.5869 -76.2056 231° Southwest 427 491 34,000 180 Climbing Washington Center
11:51AM 39.5136 -76.3150 229° Southwest 433 498 34,000  Level Washington Center
11:52AM 39.4378 -76.4325 230° Southwest 433 498 34,000  Level Washington Center
11:53AM 39.3514 -76.5578 228° Southwest 428 493 34,000  Level Washington Center
11:54AM 39.2794 -76.6775 232° Southwest 428 493 34,000  Level Washington Center
11:55AM 39.2033 -76.7942 230° Southwest 428 493 34,000  Level Washington Center
11:56AM 39.1272 -76.9106 230° Southwest 428 493 34,000  Level Washington Center
11:57AM 39.0678 -77.0031 230° Southwest 428 493 34,000  Level Washington Center
11:58AM 38.9642 -77.1267 223° Southwest 428 493 34,000  Level Washington Center
11:59AM 38.8731 -77.2233 220° Southwest 423 487 34,000  Level Washington Center
12:00PM 38.7842 -77.3228 221° Southwest 428 493 34,000  Level Washington Center
12:01PM 38.7036 -77.4111 221° Southwest 428 493 34,000  Level Washington Center
12:02PM 38.6167 -77.5100 222° Southwest 428 493 34,000  Level Washington Center
12:03PM 38.5275 -77.6061 220° Southwest 428 493 34,000  Level Washington Center
12:04PM 38.4361 -77.7042 220° Southwest 428 493 34,000  Level Washington Center
12:05PM 38.3469 -77.8022 221° Southwest 428 493 34,000  Level Washington Center
12:06PM 38.2575 -77.8975 220° Southwest 428 493 34,000  Level Washington Center
12:07PM 38.1658 -77.9925 219° Southwest 428 493 34,000  Level Washington Center
12:08PM 38.0806 -78.0872 221° Southwest 428 493 34,000  Level Washington Center
12:09PM 37.9889 -78.1869 221° Southwest 413 475 34,000  Level Washington Center
12:10PM 37.8950 -78.2733 216° Southwest 413 475 34,000  Level Washington Center
12:11PM 37.8014 -78.3592 216° Southwest 413 475 34,000  Level Washington Center
12:12PM 37.7097 -78.4425 216° Southwest 418 481 34,000  Level Washington Center
12:13PM 37.6244 -78.5206 216° Southwest 418 481 34,000  Level Washington Center
12:14PM 37.5325 -78.6114 218° Southwest 418 481 34,000  Level Washington Center
12:15PM 37.4406 -78.6967 216° Southwest 418 481 34,000  Level Washington Center
12:16PM 37.3444 -78.7842 216° Southwest 418 481 34,000  Level Washington Center
12:17PM 37.2525 -78.8692 216° Southwest 418 481 34,000  Level Washington Center
12:18PM 37.1497 -78.9664 217° Southwest 423 487 34,000  Level Washington Center
12:19PM 37.0575 -79.0533 217° Southwest 423 487 34,000 180 Level Washington Center
12:20PM 36.9653 -79.1375 216° Southwest 423 487 34,400 420 Climbing Washington Center
12:21PM 36.8731 -79.2242 217° Southwest 423 487 34,900 480 Climbing Washington Center
12:24PM 36.6572 -79.4144 215° Southwest 417 480 36,000 300 Climbing Atlanta Center
12:25PM 36.5686 -79.4972 217° Southwest 417 480 36,000  Level Atlanta Center
12:26PM 36.4739 -79.5825 216° Southwest 417 480 36,000  Level Atlanta Center
12:27PM 36.3828 -79.6650 216° Southwest 417 480 36,000  Level Atlanta Center
12:28PM 36.2939 -79.7472 217° Southwest 417 480 36,000  Level Atlanta Center
12:29PM 36.2111 -79.8211 216° Southwest 417 480 36,000  Level Atlanta Center
12:30PM 36.1200 -79.9028 216° Southwest 417 480 36,000  Level Atlanta Center
12:31PM 36.0267 -79.9847 215° Southwest 417 480 36,000  Level Atlanta Center
12:32PM 35.9219 -80.0336 201° Southwest 410 472 36,000  Level Atlanta Center
12:33PM 35.8050 -80.0906 202° Southwest 410 472 36,000  Level Atlanta Center
12:34PM 35.7003 -80.1442 203° Southwest 410 472 36,000  Level Atlanta Center
12:35PM 35.5914 -80.1978 202° Southwest 410 472 36,000  Level Atlanta Center
12:36PM 35.4867 -80.2536 203° Southwest 416 479 36,000  Level Atlanta Center
12:37PM 35.3758 -80.3097 202° Southwest 416 479 36,000  Level Atlanta Center
12:38PM 35.2647 -80.3656 202° Southwest 421 484 36,000  Level Atlanta Center
12:39PM 35.1558 -80.4214 203° Southwest 433 498 36,000  Level Atlanta Center
12:40PM 34.9842 -80.5083 203° Southwest 445 512 36,000  Level Jacksonville Center
12:41PM 34.8747 -80.5594 201° Southwest 450 518 36,000  Level Jacksonville Center
12:42PM 34.7631 -80.6208 204° Southwest 430 495 36,000  Level Jacksonville Center
12:43PM 34.6514 -80.6767 202° Southwest 435 501 36,000  Level Jacksonville Center
12:44PM 34.5211 -80.7331 200° South 454 522 36,000  Level Jacksonville Center
12:45PM 34.4031 -80.7964 204° Southwest 454 522 36,000  Level Jacksonville Center
12:46PM 34.2933 -80.8392 198° South 447 514 36,000  Level Jacksonville Center
12:47PM 34.1919 -80.8942 204° Southwest 437 503 36,000  Level Jacksonville Center
12:48PM 34.0781 -80.9494 202° Southwest 442 509 36,000  Level Jacksonville Center
12:49PM 33.9578 -81.0047 201° Southwest 447 514 36,000  Level Jacksonville Center
12:50PM 33.8294 -81.0600 200° South 447 514 36,000 -60 Level Jacksonville Center
12:51PM 33.7217 -81.1197 205° Southwest 452 520 35,900  Descending Jacksonville Center
12:52PM 33.6036 -81.1769 202° Southwest 458 527 36,000  Climbing Jacksonville Center
12:53PM 33.4875 -81.2364 203° Southwest 458 527 36,000  Level Jacksonville Center
12:54PM 33.3692 -81.2933 202° Southwest 458 527 36,000  Level Jacksonville Center
12:55PM 33.2511 -81.3550 204° Southwest 458 527 36,000  Level Jacksonville Center
12:56PM 33.1306 -81.4117 201° Southwest 463 533 36,000  Level Jacksonville Center
12:57PM 33.0122 -81.4706 203° Southwest 468 539 36,000  Level Jacksonville Center
12:58PM 32.8942 -81.5294 203° Southwest 468 539 36,000  Level Jacksonville Center
12:59PM 32.7778 -81.5856 202° Southwest 463 533 36,000  Level Jacksonville Center
01:00PM 32.6489 -81.6467 202° Southwest 457 526 36,000  Level Jacksonville Center
01:01PM 32.5347 -81.7047 203° Southwest 459 528 36,000  Level Jacksonville Center
01:02PM 32.4142 -81.7631 202° Southwest 459 528 36,000  Level Jacksonville Center
01:03PM 32.2978 -81.8186 202° Southwest 459 528 36,000  Level Jacksonville Center
01:04PM 32.1894 -81.8689 201° Southwest 459 528 36,000  Level Jacksonville Center
01:05PM 32.0586 -81.9292 201° Southwest 459 528 36,000  Level Jacksonville Center
01:06PM 31.9400 -81.9842 201° Southwest 459 528 36,000  Level Jacksonville Center
01:07PM 31.8317 -82.0294 200° South 454 522 36,000  Level Jacksonville Center
01:08PM 31.6983 -82.0744 196° South 454 522 36,000  Level Jacksonville Center
01:09PM 31.5772 -82.0903 186° South 467 537 36,000  Level Jacksonville Center
01:10PM 31.4500 -82.1036 185° South 472 543 36,000  Level Jacksonville Center
01:11PM 31.3206 -82.1167 185° South 472 543 36,000  Level Jacksonville Center
01:12PM 31.1914 -82.1300 185° South 472 543 36,000  Level Jacksonville Center
01:13PM 31.0619 -82.1408 184° South 472 543 36,000  Level Jacksonville Center
01:14PM 30.9283 -82.1539 185° South 472 543 36,000  Level Jacksonville Center
01:15PM 30.7989 -82.1669 185° South 478 550 36,000  Level Jacksonville Center
01:16PM 30.6675 -82.1800 185° South 478 550 36,000  Level Jacksonville Center
01:17PM 30.5278 -82.1883 183° South 478 550 36,000  Level Jacksonville Center
01:18PM 30.3983 -82.2039 186° South 478 550 36,000  Level Jacksonville Center
01:19PM 30.2669 -82.2167 185° South 473 544 36,000 -60 Level Jacksonville Center
01:20PM 30.1394 -82.2272 184° South 473 544 35,900 -960 Descending Jacksonville Center
01:21PM 30.0228 -82.2425 186° South 465 535 34,100 -1,860 Descending Jacksonville Center
01:22PM 29.8911 -82.2553 185° South 465 535 32,200 -2,880 Descending Jacksonville Center
01:23PM 29.7431 -82.2658 184° South 485 558 28,400 -2,700 Descending Jacksonville Center
01:24PM 29.6072 -82.2572 177° South 485 558 26,900 -2,040 Descending Jacksonville Center
01:25PM 29.4778 -82.2364 172° South 485 558 24,400 -2,340 Descending Jacksonville Center
01:26PM 29.3544 -82.2206 174° South 467 537 22,300 -1,740 Descending Jacksonville Center
01:27PM 29.2481 -82.2047 173° South 456 525 21,000 -1,500 Descending Jacksonville Center
01:28PM 29.1289 -82.1889 173° South 443 510 19,300 -1,620 Descending Jacksonville Center
01:29PM 29.0161 -82.1731 173° South 426 490 17,800 -1,500 Descending Jacksonville Center
01:30PM 28.9053 -82.1550 172° South 415 478 16,300 -1,560 Descending Jacksonville Center
01:32PM 28.7333 -82.1333 174° South 387 445 13,900 -1,380 Descending Tampa TRACON
01:33PM 28.6167 -82.1167 173° South 377 434 12,800 -900 Descending Tampa TRACON
01:34PM 28.5167 -82.1000 172° South 374 430 12,200 -600 Descending Tampa TRACON
01:35PM 28.4167 -82.0833 172° South 366 421 11,600 -660 Descending Tampa TRACON
01:36PM 28.3333 -82.0667 170° South 366 421 11,000 -360 Descending Tampa TRACON
01:37PM 28.2333 -82.0500 172° South 363 418 11,000  Level Tampa TRACON
01:38PM 28.1167 -82.0833 194° South 359 413 11,000 -480 Level Tampa TRACON
01:39PM 28.0500 -82.1167 204° Southwest 319 367 10,100 -1,440 Descending Tampa TRACON
01:40PM 27.9667 -82.1500 199° South 283 326 8,300 -1,560 Descending Tampa TRACON
01:41PM 27.9000 -82.1667 192° South 278 320 7,200 -1,320 Descending Tampa TRACON
01:42PM 27.8333 -82.2000 204° Southwest 263 303 6,000 -600 Descending Tampa TRACON
01:43PM 27.7667 -82.2333 204° Southwest 238 274 6,000  Level Tampa TRACON
01:44PM 27.7167 -82.2833 222° Southwest 219 252 6,000  Level Tampa TRACON
01:45PM 27.6667 -82.3333 222° Southwest 220 253 6,000  Level Tampa TRACON
01:46PM 27.6167 -82.3833 222° Southwest 222 255 6,000 -240 Level Tampa TRACON
01:47PM 27.6000 -82.4500 254° West 225 259 5,600 -960 Descending Tampa TRACON
01:48PM 27.6000 -82.5167 270° West 228 262 4,100 -840 Descending Tampa TRACON
01:49PM 27.5833 -82.5833 254° West 229 264 4,000 -240 Descending Tampa TRACON
01:50PM 27.5833 -82.6500 270° West 228 262 3,700 -900 Descending Tampa TRACON
01:51PM 27.5500 -82.7167 241° Southwest 221 254 2,100 -900 Descending Tampa TRACON
01:52PM 27.5167 -82.6833 138° Southeast 185 213 2,000 -60 Descending Tampa TRACON
01:53PM 27.4833 -82.6500 138° Southeast 137 158 2,000  Level Tampa TRACON